Time;durP1;ratioP1;P1;durP2;ratioP2;P2;SDS_P1;SDS_P2;PMS_P1;PMS_P2;Temp;Humidity;BMP_temperature;BMP_pressure;BME280_temperature;BME280_humidity;BME280_pressure;Samples;Min_cycle;Max_cycle;Signal;HPM_P1;HPM_P2
2021/06/30 00:00:30;;;;;;;42.38;6.38;;;26.70;99.90;;;;;;5011208;28;20425;-76
2021/06/30 00:02:56;;;;;;;26.83;5.78;;;26.70;99.90;;;;;;5011852;28;20030;-74
2021/06/30 00:05:22;;;;;;;41.28;6.78;;;26.70;99.90;;;;;;5011814;28;20109;-72
2021/06/30 00:07:48;;;;;;;33.00;6.15;;;26.60;99.90;;;;;;5011457;28;20045;-75
2021/06/30 00:10:15;;;;;;;24.45;5.40;;;26.60;99.90;;;;;;5011270;28;20021;-76
2021/06/30 00:12:41;;;;;;;30.38;5.57;;;26.70;99.90;;;;;;5011921;28;20026;-75
2021/06/30 00:15:17;;;;;;;28.40;5.57;;;26.70;99.90;;;;;;5011700;28;20076;-74
2021/06/30 00:17:47;;;;;;;25.75;5.13;;;26.60;99.90;;;;;;5011632;28;20065;-75
2021/06/30 00:20:13;;;;;;;29.77;5.35;;;26.60;99.90;;;;;;5011127;28;20490;-75
2021/06/30 00:22:40;;;;;;;25.75;5.40;;;26.60;99.90;;;;;;5011078;28;20028;-77
2021/06/30 00:25:07;;;;;;;21.70;5.68;;;26.60;99.90;;;;;;5011742;28;20022;-75
2021/06/30 00:27:33;;;;;;;38.03;6.13;;;26.50;99.90;;;;;;5011467;28;20041;-74
2021/06/30 00:29:58;;;;;;;35.85;5.93;;;26.50;99.90;;;;;;5011650;28;20058;-76
2021/06/30 00:32:24;;;;;;;37.53;5.45;;;26.50;99.90;;;;;;5011105;28;20030;-74
2021/06/30 00:34:50;;;;;;;24.33;5.70;;;26.50;99.90;;;;;;5011581;28;20474;-75
2021/06/30 00:37:15;;;;;;;41.05;6.03;;;26.40;99.90;;;;;;5010087;28;20612;-74
2021/06/30 00:39:41;;;;;;;30.15;5.55;;;26.40;99.90;;;;;;4993912;28;20030;-74
2021/06/30 00:42:07;;;;;;;24.05;5.28;;;26.40;99.90;;;;;;5010775;28;20113;-73
2021/06/30 00:44:35;;;;;;;28.77;5.90;;;26.40;99.90;;;;;;5017144;28;20053;-75
2021/06/30 00:47:02;;;;;;;28.38;5.82;;;26.30;99.90;;;;;;5011524;28;20040;-74
2021/06/30 00:49:28;;;;;;;46.28;6.97;;;26.30;99.90;;;;;;5011014;28;20114;-76
2021/06/30 00:51:54;;;;;;;31.13;6.65;;;26.30;99.90;;;;;;5011275;28;20109;-75
2021/06/30 00:54:20;;;;;;;31.77;5.65;;;26.30;99.90;;;;;;5010391;28;20026;-75
2021/06/30 00:56:46;;;;;;;26.42;5.05;;;26.20;99.90;;;;;;5010210;28;20054;-74
2021/06/30 00:59:13;;;;;;;17.85;4.95;;;26.20;99.90;;;;;;5010286;28;20049;-74
2021/06/30 01:01:39;;;;;;;17.95;5.32;;;26.20;99.90;;;;;;5010848;28;20066;-75
2021/06/30 01:04:06;;;;;;;25.33;5.97;;;26.20;99.90;;;;;;5010789;28;20647;-74
2021/06/30 01:06:32;;;;;;;18.67;5.57;;;26.20;99.90;;;;;;5009738;28;20037;-74
2021/06/30 01:09:03;;;;;;;21.25;5.05;;;26.10;99.90;;;;;;5010785;28;20046;-74
2021/06/30 01:11:30;;;;;;;24.60;4.68;;;26.10;99.90;;;;;;5011284;28;20384;-74
2021/06/30 01:13:56;;;;;;;43.58;6.75;;;26.10;99.90;;;;;;5010864;28;20549;-74
2021/06/30 01:16:21;;;;;;;23.83;5.97;;;26.10;99.90;;;;;;5010083;28;20018;-74
2021/06/30 01:18:47;;;;;;;23.02;5.28;;;26.00;99.90;;;;;;5008288;28;20394;-74
2021/06/30 01:21:15;;;;;;;28.50;5.32;;;26.00;99.90;;;;;;5009950;28;20486;-75
2021/06/30 01:23:42;;;;;;;20.40;5.97;;;26.00;99.90;;;;;;5010906;28;20014;-76
2021/06/30 01:26:09;;;;;;;20.80;5.85;;;25.90;99.90;;;;;;5010274;28;20371;-75
2021/06/30 01:28:35;;;;;;;32.70;6.13;;;25.90;99.90;;;;;;5010914;28;20018;-75
2021/06/30 01:31:03;;;;;;;27.27;6.55;;;25.80;99.90;;;;;;5010810;28;20034;-73
2021/06/30 01:33:28;;;;;;;28.95;6.32;;;25.80;99.90;;;;;;5010695;28;20092;-73
2021/06/30 01:35:54;;;;;;;21.70;5.78;;;25.80;99.90;;;;;;5010837;28;20033;-76
2021/06/30 01:38:25;;;;;;;24.23;5.80;;;25.80;99.90;;;;;;5010578;28;20363;-76
2021/06/30 01:40:53;;;;;;;26.57;5.57;;;25.80;99.90;;;;;;5010718;28;20609;-75
2021/06/30 01:43:19;;;;;;;20.67;5.15;;;25.70;99.90;;;;;;5010551;28;20269;-74
2021/06/30 01:45:45;;;;;;;16.20;4.90;;;25.70;99.90;;;;;;5010743;28;20034;-75
2021/06/30 01:48:11;;;;;;;24.35;5.20;;;25.60;99.90;;;;;;5008408;28;20030;-75
2021/06/30 01:50:38;;;;;;;21.25;5.90;;;25.60;99.90;;;;;;5010143;28;20057;-74
2021/06/30 01:53:05;;;;;;;26.50;5.72;;;25.60;99.90;;;;;;5010741;28;20034;-74
2021/06/30 01:55:32;;;;;;;18.23;5.57;;;25.50;99.90;;;;;;5010360;28;20105;-73
2021/06/30 01:57:58;;;;;;;27.17;5.72;;;25.40;99.90;;;;;;5010234;28;20125;-73
2021/06/30 02:00:24;;;;;;;22.33;5.07;;;25.30;99.90;;;;;;5010531;28;20597;-75
2021/06/30 02:02:50;;;;;;;21.92;5.38;;;25.30;99.90;;;;;;5010480;28;20595;-75
2021/06/30 02:05:18;;;;;;;20.92;5.55;;;25.30;99.90;;;;;;5010407;28;20044;-74
2021/06/30 02:07:48;;;;;;;21.75;5.38;;;25.20;99.90;;;;;;5013706;28;20161;-76
2021/06/30 02:10:15;;;;;;;27.88;6.38;;;25.20;99.90;;;;;;5014262;28;20038;-75
2021/06/30 02:12:41;;;;;;;27.95;6.28;;;25.20;99.90;;;;;;5013900;28;20084;-74
2021/06/30 02:15:10;;;;;;;15.70;5.55;;;25.20;99.90;;;;;;5014011;28;20029;-74
2021/06/30 02:17:36;;;;;;;24.42;6.20;;;25.10;99.90;;;;;;5013440;28;20033;-73
2021/06/30 02:20:05;;;;;;;31.80;5.50;;;25.10;99.90;;;;;;4995589;28;20552;-74
2021/06/30 02:22:30;;;;;;;27.77;5.32;;;25.10;99.90;;;;;;5013376;28;20042;-75
2021/06/30 02:24:58;;;;;;;31.63;5.68;;;25.10;99.90;;;;;;5014741;28;20018;-75
2021/06/30 02:27:24;;;;;;;26.63;6.25;;;25.10;99.90;;;;;;5014512;28;20470;-73
2021/06/30 02:29:50;;;;;;;18.90;5.60;;;25.10;99.90;;;;;;5013099;28;20026;-74
2021/06/30 02:32:16;;;;;;;22.70;5.65;;;25.20;99.90;;;;;;5013927;28;20034;-74
2021/06/30 02:34:42;;;;;;;18.38;5.45;;;25.20;99.90;;;;;;5013823;28;20104;-74
2021/06/30 02:37:07;;;;;;;20.15;5.32;;;25.20;99.90;;;;;;5013789;28;20040;-74
2021/06/30 02:39:33;;;;;;;19.48;4.95;;;25.20;99.90;;;;;;5013248;28;20593;-75
2021/06/30 02:41:59;;;;;;;21.83;6.00;;;25.10;99.90;;;;;;4995659;28;20038;-75
2021/06/30 02:44:25;;;;;;;23.38;5.90;;;25.10;99.90;;;;;;5013518;28;20340;-75
2021/06/30 02:46:50;;;;;;;17.75;4.75;;;25.10;99.90;;;;;;5013275;28;20027;-74
2021/06/30 02:49:16;;;;;;;19.38;5.97;;;25.00;99.90;;;;;;5012927;28;20029;-76
2021/06/30 02:51:42;;;;;;;23.70;5.50;;;24.90;99.90;;;;;;5013075;28;20076;-75
2021/06/30 02:54:08;;;;;;;25.50;7.30;;;24.90;99.90;;;;;;5013358;28;20033;-75
2021/06/30 02:56:33;;;;;;;30.90;6.03;;;24.80;99.90;;;;;;5013118;28;20050;-75
2021/06/30 02:58:59;;;;;;;17.23;5.38;;;24.80;99.90;;;;;;5013242;28;20026;-74
2021/06/30 03:01:25;;;;;;;17.95;5.40;;;24.70;99.90;;;;;;5012558;28;20071;-74
2021/06/30 03:03:50;;;;;;;22.58;6.22;;;24.70;99.90;;;;;;5012939;28;20030;-74
2021/06/30 03:06:16;;;;;;;26.38;5.78;;;24.70;99.90;;;;;;5013004;28;20038;-74
2021/06/30 03:08:42;;;;;;;19.60;5.53;;;24.70;99.90;;;;;;5013223;28;20042;-76
2021/06/30 03:11:07;;;;;;;27.70;5.55;;;24.60;99.90;;;;;;5013077;28;20030;-74
2021/06/30 03:13:33;;;;;;;35.20;6.18;;;24.70;99.90;;;;;;5012842;28;20030;-74
2021/06/30 03:15:59;;;;;;;21.15;5.78;;;24.70;99.90;;;;;;5012926;28;20448;-76
2021/06/30 03:18:24;;;;;;;24.73;6.05;;;24.70;99.90;;;;;;5012382;28;20022;-75
2021/06/30 03:20:50;;;;;;;16.42;4.97;;;24.70;99.90;;;;;;5012575;28;20493;-76
2021/06/30 03:23:16;;;;;;;12.57;4.60;;;24.70;99.90;;;;;;5012349;28;20033;-76
2021/06/30 03:25:41;;;;;;;18.67;5.45;;;24.70;99.90;;;;;;5013058;28;20029;-74
2021/06/30 03:28:07;;;;;;;12.93;4.90;;;24.80;99.90;;;;;;5011916;28;20030;-75
2021/06/30 03:30:34;;;;;;;17.05;4.63;;;24.80;99.90;;;;;;5012797;28;20092;-76
2021/06/30 03:33:03;;;;;;;17.23;4.72;;;24.80;99.90;;;;;;5013434;28;20593;-76
2021/06/30 03:35:29;;;;;;;15.07;5.05;;;24.90;99.90;;;;;;5013266;28;20061;-77
2021/06/30 03:37:55;;;;;;;16.67;4.60;;;24.90;99.90;;;;;;5012900;28;20050;-76
2021/06/30 03:40:21;;;;;;;22.88;4.82;;;24.90;99.90;;;;;;5012396;28;20481;-76
2021/06/30 03:42:47;;;;;;;18.90;5.03;;;24.90;99.90;;;;;;5012255;28;20025;-77
2021/06/30 03:45:13;;;;;;;20.95;4.68;;;24.90;99.90;;;;;;5007294;28;20117;-74
2021/06/30 03:47:39;;;;;;;17.02;5.10;;;24.80;99.90;;;;;;5013081;28;20468;-77
2021/06/30 03:50:06;;;;;;;13.07;4.65;;;24.90;99.90;;;;;;5012641;28;20161;-76
2021/06/30 03:52:32;;;;;;;14.20;4.40;;;24.80;99.90;;;;;;5012771;28;20030;-77
2021/06/30 03:54:57;;;;;;;24.15;4.93;;;24.80;99.90;;;;;;5012655;28;20482;-77
2021/06/30 03:57:25;;;;;;;16.88;4.70;;;24.80;99.90;;;;;;5011162;28;20048;-75
2021/06/30 03:59:52;;;;;;;15.63;4.72;;;24.80;99.90;;;;;;5012262;28;20053;-77
2021/06/30 04:02:17;;;;;;;19.20;4.15;;;24.90;99.90;;;;;;5012066;28;20052;-74
2021/06/30 04:04:43;;;;;;;21.60;4.00;;;25.00;99.90;;;;;;5011819;28;20030;-73
2021/06/30 04:07:09;;;;;;;16.88;4.70;;;25.10;99.90;;;;;;5012108;28;20050;-75
2021/06/30 04:09:35;;;;;;;18.85;4.47;;;25.10;99.90;;;;;;5012846;28;20045;-75
2021/06/30 04:12:00;;;;;;;13.13;4.32;;;25.20;99.90;;;;;;5012730;28;20033;-74
2021/06/30 04:14:27;;;;;;;15.07;4.18;;;25.30;99.90;;;;;;5012597;28;20049;-76
2021/06/30 04:16:53;;;;;;;19.52;4.88;;;25.40;99.90;;;;;;5012414;28;20101;-77
2021/06/30 04:19:18;;;;;;;12.77;3.97;;;25.60;99.90;;;;;;5012083;28;20566;-75
2021/06/30 04:21:44;;;;;;;21.65;4.75;;;25.60;99.90;;;;;;5011534;28;20046;-76
2021/06/30 04:24:10;;;;;;;18.75;4.82;;;25.70;99.90;;;;;;5012395;28;20105;-74
2021/06/30 04:26:36;;;;;;;24.00;4.20;;;25.80;99.90;;;;;;5012227;28;20068;-76
2021/06/30 04:29:03;;;;;;;23.42;4.53;;;25.80;99.90;;;;;;5000489;28;20494;-76
2021/06/30 04:31:29;;;;;;;10.60;4.40;;;25.90;99.90;;;;;;5012575;28;20084;-76
2021/06/30 04:33:55;;;;;;;14.18;4.38;;;26.10;99.90;;;;;;5012022;28;20425;-75
2021/06/30 04:36:20;;;;;;;18.50;4.22;;;26.30;99.90;;;;;;5011879;28;20072;-74
2021/06/30 04:38:46;;;;;;;20.52;4.20;;;26.60;99.90;;;;;;5012192;28;20119;-74
2021/06/30 04:41:12;;;;;;;15.95;4.85;;;27.10;99.90;;;;;;5011693;28;20091;-75
2021/06/30 04:43:39;;;;;;;13.57;4.32;;;27.70;99.90;;;;;;5011095;28;20033;-75
2021/06/30 04:46:06;;;;;;;16.98;4.20;;;28.40;99.90;;;;;;5011848;28;20096;-73
2021/06/30 04:48:32;;;;;;;18.45;4.65;;;28.90;99.90;;;;;;5011451;28;20105;-76
2021/06/30 04:50:58;;;;;;;15.15;3.90;;;29.50;99.90;;;;;;5011756;28;20026;-76
2021/06/30 04:53:24;;;;;;;21.15;4.00;;;30.10;99.90;;;;;;5011723;28;20018;-75
2021/06/30 04:55:50;;;;;;;13.65;4.25;;;30.40;99.90;;;;;;5012120;28;20064;-74
2021/06/30 04:58:15;;;;;;;21.98;4.15;;;30.70;99.90;;;;;;5012041;28;20022;-75
2021/06/30 05:00:41;;;;;;;18.05;4.85;;;31.10;99.90;;;;;;5012066;28;20092;-74
2021/06/30 05:03:07;;;;;;;14.93;4.28;;;31.80;99.90;;;;;;5011983;28;20057;-76
2021/06/30 05:05:33;;;;;;;22.15;3.85;;;32.00;99.90;;;;;;4995699;28;20386;-74
2021/06/30 05:07:59;;;;;;;7.00;3.35;;;32.50;99.90;;;;;;5011402;28;20046;-74
2021/06/30 05:10:25;;;;;;;10.98;3.30;;;33.30;99.90;;;;;;5012156;28;20028;-74
2021/06/30 05:12:51;;;;;;;20.42;3.70;;;33.90;99.90;;;;;;5011058;28;20383;-74
2021/06/30 05:15:17;;;;;;;16.10;2.90;;;34.00;99.70;;;;;;5024800;28;20022;-75
2021/06/30 05:17:42;;;;;;;9.38;2.70;;;34.20;98.80;;;;;;5010571;28;20033;-76
2021/06/30 05:20:09;;;;;;;18.45;3.95;;;34.50;98.40;;;;;;5009873;28;20112;-75
2021/06/30 05:22:34;;;;;;;15.65;2.90;;;35.00;97.80;;;;;;5008742;28;20034;-76
2021/06/30 05:25:01;;;;;;;23.73;3.80;;;35.70;96.60;;;;;;5003087;28;20474;-76
2021/06/30 05:27:27;;;;;;;15.18;2.63;;;36.20;95.90;;;;;;5010661;28;20053;-75
2021/06/30 05:29:52;;;;;;;7.55;2.60;;;36.90;94.90;;;;;;5012331;28;20205;-75
2021/06/30 05:32:18;;;;;;;14.57;2.92;;;37.10;94.20;;;;;;5010363;28;20049;-74
2021/06/30 05:34:44;;;;;;;10.73;3.00;;;37.30;93.70;;;;;;5009639;28;20108;-74
2021/06/30 05:37:09;;;;;;;16.75;3.53;;;37.90;93.30;;;;;;5010281;28;20033;-75
2021/06/30 05:39:35;;;;;;;14.80;3.13;;;38.60;92.30;;;;;;5012080;28;20021;-78
2021/06/30 05:42:01;;;;;;;13.60;2.65;;;39.00;91.00;;;;;;5014116;28;20310;-76
2021/06/30 05:44:26;;;;;;;16.15;3.40;;;39.50;90.40;;;;;;5015572;28;20116;-74
2021/06/30 05:46:52;;;;;;;10.95;2.22;;;39.80;89.20;;;;;;5014887;28;20466;-75
2021/06/30 05:49:18;;;;;;;16.63;2.80;;;39.30;88.40;;;;;;5013964;28;20084;-75
2021/06/30 05:51:43;;;;;;;16.10;2.47;;;39.60;87.70;;;;;;5014288;28;20033;-74
2021/06/30 05:54:10;;;;;;;8.52;2.08;;;40.60;85.50;;;;;;5015132;28;20022;-74
2021/06/30 05:56:37;;;;;;;11.20;1.85;;;40.30;83.80;;;;;;5014383;28;20060;-74
2021/06/30 05:59:03;;;;;;;10.45;2.10;;;40.50;83.00;;;;;;5015010;28;20418;-73
2021/06/30 06:01:29;;;;;;;9.77;1.83;;;40.00;82.80;;;;;;5014354;28;20030;-74
2021/06/30 06:03:55;;;;;;;9.57;2.00;;;39.80;83.30;;;;;;5015450;28;20026;-76
2021/06/30 06:06:21;;;;;;;13.48;2.22;;;40.10;82.40;;;;;;5014411;28;20093;-75
2021/06/30 06:08:46;;;;;;;12.63;2.20;;;40.90;81.60;;;;;;5013338;28;20057;-75
2021/06/30 06:11:12;;;;;;;10.20;2.10;;;41.20;80.60;;;;;;5014892;28;20109;-74
2021/06/30 06:13:40;;;;;;;10.80;2.30;;;40.10;79.90;;;;;;5015055;28;20421;-74
2021/06/30 06:16:09;;;;;;;11.40;2.75;;;40.00;81.10;;;;;;5014572;28;20101;-75
2021/06/30 06:18:35;;;;;;;13.30;2.22;;;40.90;79.70;;;;;;5014785;28;20049;-74
2021/06/30 06:21:02;;;;;;;12.13;2.95;;;42.10;78.30;;;;;;5014908;28;20069;-74
2021/06/30 06:23:28;;;;;;;11.25;2.70;;;43.30;76.20;;;;;;5014891;28;20477;-75
2021/06/30 06:25:54;;;;;;;5.18;1.38;;;44.20;74.80;;;;;;5014628;28;20494;-73
2021/06/30 06:28:19;;;;;;;11.93;2.03;;;44.70;72.60;;;;;;5014860;28;20025;-74
2021/06/30 06:30:48;;;;;;;9.40;1.70;;;45.10;71.30;;;;;;5014853;28;20084;-74
2021/06/30 06:33:15;;;;;;;13.82;1.73;;;45.30;70.80;;;;;;5014892;28;20417;-74
2021/06/30 06:35:47;;;;;;;8.77;1.65;;;45.40;68.90;;;;;;5014153;28;20025;-75
2021/06/30 06:38:13;;;;;;;7.28;1.65;;;44.50;69.50;;;;;;5014596;28;20033;-73
2021/06/30 06:40:39;;;;;;;21.15;2.30;;;42.80;71.50;;;;;;5014247;28;20101;-73
2021/06/30 06:43:07;;;;;;;11.57;2.22;;;43.50;70.30;;;;;;5014446;28;20028;-76
2021/06/30 06:45:33;;;;;;;7.63;2.00;;;44.40;69.20;;;;;;5014650;28;20026;-74
2021/06/30 06:47:58;;;;;;;6.13;1.50;;;45.10;68.30;;;;;;5014236;28;20113;-73
2021/06/30 06:50:24;;;;;;;8.63;1.88;;;44.80;68.40;;;;;;5013605;28;20022;-74
2021/06/30 06:52:50;;;;;;;10.70;1.70;;;44.40;67.80;;;;;;5013193;28;20033;-75
2021/06/30 06:55:16;;;;;;;15.30;1.77;;;44.00;67.70;;;;;;5013871;28;20021;-79
2021/06/30 06:57:41;;;;;;;5.45;1.85;;;42.80;68.90;;;;;;5013532;28;20588;-72
2021/06/30 07:00:08;;;;;;;12.35;1.92;;;41.10;70.40;;;;;;5014051;28;20025;-73
2021/06/30 07:02:34;;;;;;;7.13;1.80;;;39.60;72.80;;;;;;5014168;28;20040;-77
2021/06/30 07:04:59;;;;;;;13.82;2.13;;;38.20;75.30;;;;;;5014061;28;20022;-74
2021/06/30 07:07:27;;;;;;;5.18;1.70;;;37.20;77.40;;;;;;5014037;28;20058;-74
2021/06/30 07:09:53;;;;;;;9.05;1.63;;;36.40;78.10;;;;;;5013913;28;20351;-73
2021/06/30 07:12:20;;;;;;;7.45;1.88;;;35.90;78.20;;;;;;5014179;28;20022;-77
2021/06/30 07:14:46;;;;;;;7.05;1.67;;;35.40;79.70;;;;;;5014151;28;20079;-72
2021/06/30 07:17:11;;;;;;;18.35;2.08;;;35.10;80.60;;;;;;5014047;28;20034;-78
2021/06/30 07:19:37;;;;;;;8.48;1.75;;;34.80;81.00;;;;;;5013969;28;20394;-76
2021/06/30 07:22:04;;;;;;;9.30;2.00;;;34.40;82.30;;;;;;5012886;28;20382;-75
2021/06/30 07:24:30;;;;;;;6.25;2.00;;;34.00;82.50;;;;;;5013834;28;20021;-73
2021/06/30 07:26:56;;;;;;;9.70;1.95;;;33.60;81.80;;;;;;5012457;28;20029;-75
2021/06/30 07:29:22;;;;;;;5.40;1.83;;;33.10;82.10;;;;;;5013058;28;20029;-74
2021/06/30 07:31:48;;;;;;;9.50;1.70;;;33.10;82.30;;;;;;5013225;28;20029;-72
2021/06/30 07:34:14;;;;;;;10.38;1.80;;;33.20;82.10;;;;;;5013709;28;20033;-73
2021/06/30 07:36:40;;;;;;;17.02;2.05;;;33.30;82.50;;;;;;5012576;28;20048;-73
2021/06/30 07:39:07;;;;;;;6.97;1.50;;;33.20;81.50;;;;;;5009153;28;20029;-76
2021/06/30 07:41:33;;;;;;;9.35;1.70;;;33.20;80.00;;;;;;5012769;28;20040;-73
2021/06/30 07:44:00;;;;;;;18.45;1.92;;;33.10;78.70;;;;;;5012688;28;20034;-74
2021/06/30 07:46:26;;;;;;;11.27;1.60;;;33.10;80.90;;;;;;5012853;28;20024;-74
2021/06/30 07:48:52;;;;;;;10.00;1.92;;;33.30;80.30;;;;;;5013034;28;20030;-75
2021/06/30 07:51:19;;;;;;;7.53;1.40;;;33.20;80.90;;;;;;5012915;28;20026;-76
2021/06/30 07:53:45;;;;;;;6.90;1.63;;;33.30;80.30;;;;;;5011680;28;20026;-72
2021/06/30 07:56:11;;;;;;;16.67;1.95;;;33.40;80.40;;;;;;5012388;28;20105;-77
2021/06/30 07:58:39;;;;;;;14.50;1.80;;;33.30;80.70;;;;;;5012385;28;20022;-74
2021/06/30 08:01:05;;;;;;;4.45;1.20;;;33.40;79.80;;;;;;5011960;28;20045;-74
2021/06/30 08:03:30;;;;;;;8.73;1.58;;;33.10;78.50;;;;;;4998710;28;20022;-74
2021/06/30 08:05:56;;;;;;;13.35;1.70;;;33.00;77.50;;;;;;5012702;28;20470;-76
2021/06/30 08:08:22;;;;;;;16.80;2.03;;;33.00;81.90;;;;;;5011680;28;20129;-72
2021/06/30 08:10:47;;;;;;;11.35;1.40;;;32.80;82.30;;;;;;5012782;28;20030;-73
2021/06/30 08:13:13;;;;;;;4.38;1.40;;;32.80;81.90;;;;;;5012461;28;20037;-73
2021/06/30 08:15:39;;;;;;;6.47;1.58;;;32.70;82.40;;;;;;4995062;28;20034;-73
2021/06/30 08:18:05;;;;;;;6.30;1.50;;;32.60;82.60;;;;;;5012738;28;20422;-73
2021/06/30 08:20:30;;;;;;;6.80;1.25;;;32.60;81.80;;;;;;5012312;28;20026;-74
2021/06/30 08:22:56;;;;;;;4.75;1.20;;;32.80;79.90;;;;;;5012700;28;20025;-74
2021/06/30 08:25:24;;;;;;;5.25;1.23;;;32.90;78.70;;;;;;5012668;28;20026;-73
2021/06/30 08:27:51;;;;;;;9.73;1.67;;;33.10;77.10;;;;;;5013043;28;20385;-72
2021/06/30 08:30:17;;;;;;;4.25;1.38;;;33.10;77.80;;;;;;5011894;28;20466;-73
2021/06/30 08:32:45;;;;;;;4.75;1.45;;;33.20;77.40;;;;;;5012705;28;20132;-72
2021/06/30 08:35:13;;;;;;;5.15;1.35;;;33.30;75.80;;;;;;5011810;28;20104;-73
2021/06/30 08:37:41;;;;;;;13.48;1.20;;;33.40;77.00;;;;;;5011996;28;20017;-77
2021/06/30 08:40:11;;;;;;;22.50;1.80;;;33.60;76.70;;;;;;5011639;28;20025;-73
2021/06/30 08:42:39;;;;;;;4.53;1.05;;;33.60;75.70;;;;;;5012303;28;20493;-74
2021/06/30 08:45:05;;;;;;;6.68;1.25;;;33.40;76.90;;;;;;5012117;28;20032;-73
2021/06/30 08:47:36;;;;;;;9.13;1.38;;;33.40;77.90;;;;;;5012278;28;20026;-73
2021/06/30 08:50:03;;;;;;;;;;;33.50;77.20;;;;;;5012219;28;20030;-72
2021/06/30 08:52:29;;;;;;;2.17;1.05;;;33.50;77.10;;;;;;5011572;28;19905;-73
2021/06/30 08:54:57;;;;;;;11.13;1.25;;;33.70;75.90;;;;;;5012048;28;20025;-73
2021/06/30 08:57:24;;;;;;;7.03;1.52;;;33.70;76.10;;;;;;5010649;28;20026;-73
2021/06/30 08:59:50;;;;;;;8.48;1.17;;;33.80;76.40;;;;;;5010109;28;20021;-72
2021/06/30 09:02:15;;;;;;;10.55;2.08;;;33.90;77.60;;;;;;5004807;28;20129;-73
2021/06/30 09:04:43;;;;;;;3.75;1.35;;;33.90;78.70;;;;;;5009344;28;20022;-73
2021/06/30 09:07:09;;;;;;;5.72;1.63;;;33.70;79.30;;;;;;5010582;28;20030;-73
2021/06/30 09:09:42;;;;;;;5.20;1.48;;;33.40;79.80;;;;;;5007528;28;20054;-74
2021/06/30 09:12:09;;;;;;;8.77;1.40;;;33.30;80.80;;;;;;5006944;28;20022;-74
2021/06/30 09:14:37;;;;;;;11.57;2.22;;;33.30;81.00;;;;;;5009139;28;20419;-74
2021/06/30 09:17:17;;;;;;;10.25;1.60;;;32.90;82.30;;;;;;5013613;28;20026;-74
2021/06/30 09:19:54;;;;;;;4.30;1.50;;;32.80;82.30;;;;;;5007411;28;20025;-75
2021/06/30 09:22:26;;;;;;;7.55;1.50;;;32.70;82.40;;;;;;5012437;28;20558;-74
2021/06/30 09:24:52;;;;;;;4.57;1.58;;;32.80;82.60;;;;;;5013819;28;20208;-74
2021/06/30 09:27:35;;;;;;;8.80;1.48;;;32.80;82.50;;;;;;5012552;28;20033;-74
2021/06/30 09:30:06;;;;;;;12.98;1.80;;;32.70;83.10;;;;;;5012348;28;20072;-76
2021/06/30 09:32:33;;;;;;;9.05;1.70;;;32.70;82.50;;;;;;5011855;28;20040;-75
2021/06/30 09:35:32;;;;;;;6.97;1.52;;;32.80;83.30;;;;;;5013611;28;20056;-74
2021/06/30 09:37:58;;;;;;;4.53;1.63;;;32.80;84.80;;;;;;5010850;28;20058;-74
2021/06/30 09:40:41;;;;;;;8.65;1.77;;;32.90;84.70;;;;;;5012804;28;20029;-74
2021/06/30 09:43:25;;;;;;;12.40;1.70;;;32.90;84.40;;;;;;5011784;28;20045;-74
2021/06/30 09:45:50;;;;;;;7.78;1.55;;;32.80;85.00;;;;;;5013488;28;20084;-75
2021/06/30 09:48:37;;;;;;;7.35;1.90;;;32.60;83.70;;;;;;5014376;28;20052;-74
2021/06/30 09:51:05;;;;;;;5.00;1.45;;;32.50;85.00;;;;;;5014403;28;20026;-74
2021/06/30 09:53:31;;;;;;;7.95;1.63;;;32.40;86.20;;;;;;5014660;28;20054;-74
2021/06/30 09:56:12;;;;;;;7.82;2.22;;;32.50;86.70;;;;;;5013699;28;20091;-74
2021/06/30 09:58:38;;;;;;;10.80;1.57;;;32.70;87.40;;;;;;5002777;28;20026;-75
2021/06/30 10:01:18;;;;;;;8.30;1.80;;;32.70;88.30;;;;;;5013495;28;20061;-76
2021/06/30 10:03:45;;;;;;;8.15;1.88;;;32.80;88.50;;;;;;5013424;28;20088;-74
2021/06/30 10:06:43;;;;;;;13.23;2.13;;;32.50;88.50;;;;;;5013142;28;20441;-74
2021/06/30 10:09:14;;;;;;;9.55;1.90;;;32.40;90.10;;;;;;4957749;28;20118;-75
2021/06/30 10:11:39;;;;;;;;;;;32.40;89.70;;;;;;4975392;28;20023;-76
2021/06/30 10:14:05;;;;;;;9.50;1.73;;;32.20;90.10;;;;;;4974611;28;19906;-75
2021/06/30 10:16:31;;;;;;;3.35;1.40;;;32.10;90.30;;;;;;4972367;28;20065;-76
2021/06/30 10:18:59;;;;;;;6.30;1.60;;;32.10;90.10;;;;;;4974316;28;20027;-74
2021/06/30 10:21:27;;;;;;;5.47;1.40;;;32.30;90.40;;;;;;4973632;28;20031;-74
2021/06/30 10:23:53;;;;;;;8.80;1.85;;;32.50;89.60;;;;;;4974495;28;20022;-74
2021/06/30 10:26:21;;;;;;;17.33;2.45;;;32.50;89.40;;;;;;4971260;28;20388;-75
2021/06/30 10:28:51;;;;;;;9.45;1.95;;;32.50;89.70;;;;;;4973684;28;20077;-73
2021/06/30 10:31:18;;;;;;;9.77;1.43;;;32.50;90.00;;;;;;4970141;28;20030;-73
2021/06/30 10:33:59;;;;;;;13.32;1.40;;;32.50;90.00;;;;;;4972343;28;20023;-73
2021/06/30 10:36:57;;;;;;;6.70;1.80;;;32.40;89.60;;;;;;4967155;28;20121;-75
2021/06/30 10:39:35;;;;;;;8.75;2.00;;;32.40;89.70;;;;;;4949376;28;20134;-74
2021/06/30 10:42:14;;;;;;;9.05;1.92;;;32.20;90.00;;;;;;4974188;28;20394;-74
2021/06/30 10:44:52;;;;;;;15.93;2.08;;;32.10;90.40;;;;;;4974736;28;20015;-73
2021/06/30 10:47:43;;;;;;;8.93;1.73;;;32.20;90.30;;;;;;4974341;28;20027;-73
2021/06/30 10:50:18;;;;;;;8.82;1.63;;;32.30;90.30;;;;;;4973635;28;20023;-73
2021/06/30 10:53:06;;;;;;;6.70;1.95;;;32.40;90.10;;;;;;4973120;28;20037;-73
2021/06/30 10:55:32;;;;;;;9.98;2.03;;;32.50;90.10;;;;;;4972705;28;20541;-73
2021/06/30 10:58:16;;;;;;;11.90;1.83;;;32.50;90.00;;;;;;4973110;28;20170;-74
2021/06/30 11:00:44;;;;;;;6.47;1.73;;;32.50;90.40;;;;;;4973629;28;20455;-75
2021/06/30 11:03:34;;;;;;;7.40;2.05;;;32.50;90.20;;;;;;4973682;28;20027;-73
2021/06/30 11:06:10;;;;;;;9.18;1.70;;;32.60;90.00;;;;;;4973831;28;20480;-74
2021/06/30 11:08:55;;;;;;;11.18;1.90;;;32.50;90.10;;;;;;4993968;28;20132;-73
2021/06/30 11:11:27;;;;;;;11.68;2.03;;;32.30;90.30;;;;;;5011505;28;20025;-73
2021/06/30 11:13:59;;;;;;;8.40;2.13;;;32.00;90.60;;;;;;4984463;28;20389;-74
2021/06/30 11:16:36;;;;;;;6.82;1.95;;;31.90;90.90;;;;;;5010643;28;20092;-73
2021/06/30 11:19:04;;;;;;;10.85;1.83;;;31.70;90.80;;;;;;5011497;28;20634;-73
2021/06/30 11:22:05;;;;;;;8.82;1.83;;;31.60;91.20;;;;;;5012564;28;20208;-74
2021/06/30 11:24:43;;;;;;;9.48;2.30;;;31.70;91.20;;;;;;5011979;28;20018;-73
2021/06/30 11:27:13;;;;;;;8.30;2.05;;;31.80;91.30;;;;;;5012086;28;20375;-75
2021/06/30 11:29:53;;;;;;;10.43;2.00;;;31.80;91.60;;;;;;5012693;28;20083;-73
2021/06/30 11:35:47;;;;;;;13.45;2.20;;;32.10;91.40;;;;;;5011364;28;20104;-74
2021/06/30 11:38:15;;;;;;;15.43;1.80;;;32.20;91.00;;;;;;5008718;28;20130;-76
2021/06/30 11:40:53;;;;;;;8.43;2.03;;;32.20;90.90;;;;;;5011322;28;20490;-74
2021/06/30 11:43:24;;;;;;;6.90;1.58;;;32.20;90.70;;;;;;5008550;28;20029;-74
2021/06/30 11:45:58;;;;;;;8.83;1.80;;;32.10;90.90;;;;;;5012261;28;20018;-74
2021/06/30 11:48:25;;;;;;;10.02;2.00;;;32.00;90.60;;;;;;5011710;28;20037;-73
2021/06/30 11:50:55;;;;;;;14.30;1.70;;;31.90;90.70;;;;;;5010314;28;20045;-74
2021/06/30 11:53:50;;;;;;;12.60;2.05;;;32.00;90.40;;;;;;5011046;28;20613;-75
2021/06/30 11:56:35;;;;;;;13.18;2.33;;;32.00;90.80;;;;;;4994814;28;20131;-74
2021/06/30 11:59:03;;;;;;;12.80;1.98;;;31.90;90.80;;;;;;5010691;28;20112;-74
2021/06/30 12:01:32;;;;;;;16.48;2.30;;;32.10;90.50;;;;;;5009103;28;20062;-74
2021/06/30 12:04:17;;;;;;;7.68;1.52;;;32.10;90.10;;;;;;5011232;28;20029;-74
2021/06/30 12:06:45;;;;;;;14.07;2.28;;;32.10;90.10;;;;;;5010910;28;20029;-75
2021/06/30 12:09:18;;;;;;;10.65;2.10;;;32.00;89.90;;;;;;5011362;28;20391;-75
2021/06/30 12:11:51;;;;;;;9.25;1.73;;;31.90;90.20;;;;;;5012075;28;20041;-75
2021/06/30 12:14:20;;;;;;;8.75;1.55;;;31.70;90.00;;;;;;5011891;28;20057;-74
2021/06/30 12:16:48;;;;;;;9.27;2.63;;;31.50;90.30;;;;;;5011563;28;20017;-75
2021/06/30 12:19:19;;;;;;;8.65;1.88;;;31.70;90.50;;;;;;5012224;28;20021;-75
2021/06/30 12:21:46;;;;;;;10.63;1.90;;;31.70;90.50;;;;;;5011272;28;20418;-75
2021/06/30 12:24:14;;;;;;;15.20;2.58;;;31.50;90.80;;;;;;5011461;28;20026;-75
2021/06/30 12:27:03;;;;;;;9.73;1.70;;;31.50;90.70;;;;;;5010259;28;20057;-74
2021/06/30 12:29:31;;;;;;;8.63;2.72;;;31.50;90.70;;;;;;5012093;28;20045;-75
2021/06/30 12:31:57;;;;;;;14.32;2.67;;;31.50;91.00;;;;;;5011996;28;20076;-74
2021/06/30 12:34:24;;;;;;;10.68;2.67;;;31.50;91.40;;;;;;5012089;28;20482;-75
2021/06/30 12:36:50;;;;;;;12.85;1.98;;;31.60;91.20;;;;;;5011166;28;20104;-74
2021/06/30 12:39:22;;;;;;;15.38;2.20;;;31.80;91.10;;;;;;5011638;28;20071;-73
2021/06/30 12:41:51;;;;;;;5.82;2.08;;;31.80;91.00;;;;;;5011443;28;20117;-74
2021/06/30 12:44:16;;;;;;;16.00;2.72;;;31.90;90.90;;;;;;5010257;28;20493;-75
2021/06/30 12:46:42;;;;;;;12.25;2.30;;;32.00;91.10;;;;;;5011274;28;20037;-75
2021/06/30 12:49:16;;;;;;;23.65;3.65;;;32.10;91.00;;;;;;5009319;28;20085;-75